sensor_id;sensor_type;location;lat;lon;timestamp;temperature;humidity
67641;SHT31;54434;50.096;20.082;2023-09-07T17:34:25;19.73;69.07
67641;SHT31;54434;50.096;20.082;2023-09-07T17:37:06;19.70;69.05
67641;SHT31;54434;50.096;20.082;2023-09-07T17:39:43;19.59;69.13
67641;SHT31;54434;50.096;20.082;2023-09-07T17:42:19;19.46;69.14
67641;SHT31;54434;50.096;20.082;2023-09-07T17:44:56;19.32;69.34
67641;SHT31;54434;50.096;20.082;2023-09-07T17:47:32;19.18;69.68
67641;SHT31;54434;50.096;20.082;2023-09-07T17:50:11;19.07;69.76
67641;SHT31;54434;50.096;20.082;2023-09-07T17:52:47;18.98;69.95
67641;SHT31;54434;50.096;20.082;2023-09-07T17:55:25;18.88;70.21
67641;SHT31;54434;50.096;20.082;2023-09-07T17:58:02;18.74;70.57
67641;SHT31;54434;50.096;20.082;2023-09-07T18:00:38;18.60;70.92
67641;SHT31;54434;50.096;20.082;2023-09-07T18:03:15;18.52;70.99
67641;SHT31;54434;50.096;20.082;2023-09-07T18:05:52;18.40;71.31
67641;SHT31;54434;50.096;20.082;2023-09-07T18:08:29;18.29;71.54
67641;SHT31;54434;50.096;20.082;2023-09-07T18:11:06;18.18;71.76
67641;SHT31;54434;50.096;20.082;2023-09-07T18:13:43;18.10;71.96
67641;SHT31;54434;50.096;20.082;2023-09-07T18:16:27;18.02;72.26
67641;SHT31;54434;50.096;20.082;2023-09-07T18:19:05;17.94;72.41
67641;SHT31;54434;50.096;20.082;2023-09-07T18:21:43;17.86;72.56
67641;SHT31;54434;50.096;20.082;2023-09-07T18:24:19;17.79;72.76
67641;SHT31;54434;50.096;20.082;2023-09-07T18:26:56;17.73;72.90
67641;SHT31;54434;50.096;20.082;2023-09-07T18:29:32;17.67;73.00
67641;SHT31;54434;50.096;20.082;2023-09-07T18:32:09;17.59;73.08
67641;SHT31;54434;50.096;20.082;2023-09-07T18:34:45;17.51;73.25
67641;SHT31;54434;50.096;20.082;2023-09-07T18:37:22;17.43;73.62
67641;SHT31;54434;50.096;20.082;2023-09-07T18:39:59;17.35;73.79
67641;SHT31;54434;50.096;20.082;2023-09-07T18:42:40;17.28;73.85
67641;SHT31;54434;50.096;20.082;2023-09-07T18:45:18;17.23;73.97
67641;SHT31;54434;50.096;20.082;2023-09-07T18:47:56;17.16;74.15
67641;SHT31;54434;50.096;20.082;2023-09-07T18:50:33;17.11;74.28
67641;SHT31;54434;50.096;20.082;2023-09-07T18:53:09;17.05;74.36
67641;SHT31;54434;50.096;20.082;2023-09-07T18:55:46;17.01;74.39
67641;SHT31;54434;50.096;20.082;2023-09-07T18:58:22;16.96;74.52
67641;SHT31;54434;50.096;20.082;2023-09-07T19:01:10;16.91;74.66
67641;SHT31;54434;50.096;20.082;2023-09-07T19:03:52;16.85;74.85
67641;SHT31;54434;50.096;20.082;2023-09-07T19:06:42;16.80;74.92
67641;SHT31;54434;50.096;20.082;2023-09-07T19:09:18;16.75;74.84
67641;SHT31;54434;50.096;20.082;2023-09-07T19:11:55;16.70;74.81
67641;SHT31;54434;50.096;20.082;2023-09-07T19:14:31;16.67;75.08
67641;SHT31;54434;50.096;20.082;2023-09-07T19:17:08;16.63;75.16
67641;SHT31;54434;50.096;20.082;2023-09-07T19:19:44;16.57;75.31
67641;SHT31;54434;50.096;20.082;2023-09-07T19:22:21;16.53;75.45
67641;SHT31;54434;50.096;20.082;2023-09-07T19:24:57;16.50;75.66
67641;SHT31;54434;50.096;20.082;2023-09-07T19:27:34;16.45;75.75
67641;SHT31;54434;50.096;20.082;2023-09-07T19:30:12;16.41;75.80
67641;SHT31;54434;50.096;20.082;2023-09-07T19:32:48;16.36;75.94
67641;SHT31;54434;50.096;20.082;2023-09-07T19:35:25;16.32;75.95
67641;SHT31;54434;50.096;20.082;2023-09-07T19:38:01;16.28;76.10
67641;SHT31;54434;50.096;20.082;2023-09-07T19:40:38;16.23;76.21
67641;SHT31;54434;50.096;20.082;2023-09-07T19:43:19;16.18;76.23
67641;SHT31;54434;50.096;20.082;2023-09-07T19:45:54;16.15;76.17
67641;SHT31;54434;50.096;20.082;2023-09-07T19:48:31;16.11;76.28
67641;SHT31;54434;50.096;20.082;2023-09-07T19:51:11;16.07;76.35
67641;SHT31;54434;50.096;20.082;2023-09-07T19:53:49;16.04;76.38
67641;SHT31;54434;50.096;20.082;2023-09-07T19:56:26;16.00;76.45
67641;SHT31;54434;50.096;20.082;2023-09-07T19:59:02;15.96;76.58
67641;SHT31;54434;50.096;20.082;2023-09-07T20:04:38;15.89;76.75
67641;SHT31;54434;50.096;20.082;2023-09-07T20:07:14;15.87;76.68
67641;SHT31;54434;50.096;20.082;2023-09-07T20:09:51;15.83;76.68
67641;SHT31;54434;50.096;20.082;2023-09-07T20:12:27;15.81;76.77
67641;SHT31;54434;50.096;20.082;2023-09-07T20:15:06;15.77;76.80
67641;SHT31;54434;50.096;20.082;2023-09-07T20:17:45;15.73;76.81
67641;SHT31;54434;50.096;20.082;2023-09-07T20:20:22;15.70;76.89
67641;SHT31;54434;50.096;20.082;2023-09-07T20:22:59;15.67;77.01
67641;SHT31;54434;50.096;20.082;2023-09-07T20:25:36;15.64;77.07
67641;SHT31;54434;50.096;20.082;2023-09-07T20:28:12;15.60;77.20
67641;SHT31;54434;50.096;20.082;2023-09-07T20:30:52;15.57;77.37
67641;SHT31;54434;50.096;20.082;2023-09-07T20:33:29;15.55;77.49
67641;SHT31;54434;50.096;20.082;2023-09-07T20:36:06;15.51;77.46
67641;SHT31;54434;50.096;20.082;2023-09-07T20:38:43;15.48;77.48
67641;SHT31;54434;50.096;20.082;2023-09-07T20:41:20;15.44;77.56
67641;SHT31;54434;50.096;20.082;2023-09-07T20:43:57;15.42;77.68
67641;SHT31;54434;50.096;20.082;2023-09-07T20:46:33;15.38;77.79
67641;SHT31;54434;50.096;20.082;2023-09-07T20:49:10;15.36;77.74
67641;SHT31;54434;50.096;20.082;2023-09-07T20:51:46;15.33;77.73
67641;SHT31;54434;50.096;20.082;2023-09-07T20:54:23;15.30;77.83
67641;SHT31;54434;50.096;20.082;2023-09-07T20:56:59;15.26;77.96
67641;SHT31;54434;50.096;20.082;2023-09-07T20:59:37;15.23;78.04
67641;SHT31;54434;50.096;20.082;2023-09-07T21:02:14;15.22;78.33
67641;SHT31;54434;50.096;20.082;2023-09-07T21:04:50;15.18;78.48
67641;SHT31;54434;50.096;20.082;2023-09-07T21:07:27;15.15;78.43
67641;SHT31;54434;50.096;20.082;2023-09-07T21:10:05;15.11;78.54
67641;SHT31;54434;50.096;20.082;2023-09-07T21:12:43;15.08;78.78
67641;SHT31;54434;50.096;20.082;2023-09-07T21:15:20;15.05;79.00
67641;SHT31;54434;50.096;20.082;2023-09-07T21:17:56;15.03;79.22
67641;SHT31;54434;50.096;20.082;2023-09-07T21:20:33;15.00;79.27
67641;SHT31;54434;50.096;20.082;2023-09-07T21:23:12;14.95;79.35
67641;SHT31;54434;50.096;20.082;2023-09-07T21:25:49;14.91;79.40
67641;SHT31;54434;50.096;20.082;2023-09-07T21:28:25;14.87;79.39
67641;SHT31;54434;50.096;20.082;2023-09-07T21:31:03;14.83;79.42
67641;SHT31;54434;50.096;20.082;2023-09-07T21:33:42;14.79;79.42
67641;SHT31;54434;50.096;20.082;2023-09-07T21:36:18;14.75;79.55
67641;SHT31;54434;50.096;20.082;2023-09-07T21:38:56;14.71;79.68
67641;SHT31;54434;50.096;20.082;2023-09-07T21:41:45;14.69;79.82
67641;SHT31;54434;50.096;20.082;2023-09-07T21:44:24;14.65;80.05
67641;SHT31;54434;50.096;20.082;2023-09-07T21:47:01;14.63;80.06
67641;SHT31;54434;50.096;20.082;2023-09-07T21:49:39;14.61;80.28
67641;SHT31;54434;50.096;20.082;2023-09-07T21:52:16;14.59;80.40
67641;SHT31;54434;50.096;20.082;2023-09-07T21:54:53;14.58;80.36
67641;SHT31;54434;50.096;20.082;2023-09-07T21:57:30;14.56;80.38
67641;SHT31;54434;50.096;20.082;2023-09-07T22:00:09;14.52;80.35
67641;SHT31;54434;50.096;20.082;2023-09-07T22:02:48;14.49;80.32
67641;SHT31;54434;50.096;20.082;2023-09-07T22:05:24;14.46;80.43
67641;SHT31;54434;50.096;20.082;2023-09-07T22:08:01;14.43;80.49
67641;SHT31;54434;50.096;20.082;2023-09-07T22:10:38;14.40;80.53
67641;SHT31;54434;50.096;20.082;2023-09-07T22:13:15;14.37;80.57
67641;SHT31;54434;50.096;20.082;2023-09-07T22:15:52;14.34;80.67
67641;SHT31;54434;50.096;20.082;2023-09-07T22:18:28;14.31;80.79
67641;SHT31;54434;50.096;20.082;2023-09-07T22:21:07;14.28;80.83
67641;SHT31;54434;50.096;20.082;2023-09-07T22:23:44;14.28;80.89
67641;SHT31;54434;50.096;20.082;2023-09-07T22:26:20;14.24;80.96
67641;SHT31;54434;50.096;20.082;2023-09-07T22:28:57;14.22;81.21
67641;SHT31;54434;50.096;20.082;2023-09-07T22:31:34;14.20;81.38
67641;SHT31;54434;50.096;20.082;2023-09-07T22:34:11;14.19;81.50
67641;SHT31;54434;50.096;20.082;2023-09-07T22:36:48;14.17;81.54
67641;SHT31;54434;50.096;20.082;2023-09-07T22:39:25;14.17;81.60
67641;SHT31;54434;50.096;20.082;2023-09-07T22:42:01;14.15;81.57
67641;SHT31;54434;50.096;20.082;2023-09-07T22:44:38;14.13;81.65
67641;SHT31;54434;50.096;20.082;2023-09-07T22:47:15;14.11;81.61
67641;SHT31;54434;50.096;20.082;2023-09-07T22:49:52;14.09;81.59
67641;SHT31;54434;50.096;20.082;2023-09-07T22:52:29;14.06;81.60
67641;SHT31;54434;50.096;20.082;2023-09-07T22:55:07;14.05;81.63
67641;SHT31;54434;50.096;20.082;2023-09-07T22:57:44;14.03;81.61
67641;SHT31;54434;50.096;20.082;2023-09-07T23:00:21;14.00;81.60
67641;SHT31;54434;50.096;20.082;2023-09-07T23:02:58;13.99;81.61
67641;SHT31;54434;50.096;20.082;2023-09-07T23:05:35;13.97;81.68
67641;SHT31;54434;50.096;20.082;2023-09-07T23:08:12;13.94;81.76
67641;SHT31;54434;50.096;20.082;2023-09-07T23:10:50;13.91;81.89
67641;SHT31;54434;50.096;20.082;2023-09-07T23:13:26;13.89;81.99
67641;SHT31;54434;50.096;20.082;2023-09-07T23:16:08;13.87;82.06
67641;SHT31;54434;50.096;20.082;2023-09-07T23:18:46;13.86;82.09
67641;SHT31;54434;50.096;20.082;2023-09-07T23:21:23;13.86;82.20
67641;SHT31;54434;50.096;20.082;2023-09-07T23:24:00;13.84;82.31
67641;SHT31;54434;50.096;20.082;2023-09-07T23:26:37;13.84;82.31
67641;SHT31;54434;50.096;20.082;2023-09-07T23:29:14;13.84;82.31
67641;SHT31;54434;50.096;20.082;2023-09-07T23:31:51;13.82;82.21
67641;SHT31;54434;50.096;20.082;2023-09-07T23:34:28;13.81;82.11
67641;SHT31;54434;50.096;20.082;2023-09-07T23:37:04;13.78;82.21
67641;SHT31;54434;50.096;20.082;2023-09-07T23:39:41;13.78;82.29
67641;SHT31;54434;50.096;20.082;2023-09-07T23:42:18;13.77;82.31
67641;SHT31;54434;50.096;20.082;2023-09-07T23:44:54;13.74;82.44
67641;SHT31;54434;50.096;20.082;2023-09-07T23:47:31;13.73;82.50
67641;SHT31;54434;50.096;20.082;2023-09-07T23:50:09;13.71;82.52
67641;SHT31;54434;50.096;20.082;2023-09-07T23:52:46;13.70;82.44
67641;SHT31;54434;50.096;20.082;2023-09-07T23:55:22;13.69;82.38
67641;SHT31;54434;50.096;20.082;2023-09-07T23:57:58;13.67;82.40
